sensor_id;sensor_type;location;lat;lon;timestamp;P1;durP1;ratioP1;P2;durP2;ratioP2
81801;SDS011;71199;52.490;5.448;2024-01-30T00:01:52;23.95;;;13.13;;
81801;SDS011;71199;52.490;5.448;2024-01-30T00:04:17;22.17;;;12.30;;
81801;SDS011;71199;52.490;5.448;2024-01-30T00:06:43;24.38;;;11.73;;
81801;SDS011;71199;52.490;5.448;2024-01-30T00:09:09;19.55;;;11.90;;
81801;SDS011;71199;52.490;5.448;2024-01-30T00:11:35;19.98;;;11.95;;
81801;SDS011;71199;52.490;5.448;2024-01-30T00:14:01;18.17;;;10.85;;
81801;SDS011;71199;52.490;5.448;2024-01-30T00:16:28;15.88;;;10.90;;
81801;SDS011;71199;52.490;5.448;2024-01-30T00:18:54;23.58;;;11.65;;
81801;SDS011;71199;52.490;5.448;2024-01-30T00:21:20;22.23;;;12.00;;
81801;SDS011;71199;52.490;5.448;2024-01-30T00:23:45;27.60;;;13.15;;
81801;SDS011;71199;52.490;5.448;2024-01-30T00:26:11;20.52;;;11.48;;
81801;SDS011;71199;52.490;5.448;2024-01-30T00:28:39;21.15;;;11.77;;
81801;SDS011;71199;52.490;5.448;2024-01-30T00:31:05;21.58;;;12.02;;
81801;SDS011;71199;52.490;5.448;2024-01-30T00:33:30;25.40;;;11.90;;
81801;SDS011;71199;52.490;5.448;2024-01-30T00:35:56;21.10;;;11.77;;
81801;SDS011;71199;52.490;5.448;2024-01-30T00:38:21;20.40;;;11.43;;
81801;SDS011;71199;52.490;5.448;2024-01-30T00:40:47;21.80;;;11.73;;
81801;SDS011;71199;52.490;5.448;2024-01-30T00:43:13;20.98;;;12.25;;
81801;SDS011;71199;52.490;5.448;2024-01-30T00:45:38;17.23;;;11.07;;
81801;SDS011;71199;52.490;5.448;2024-01-30T00:48:03;20.60;;;11.43;;
81801;SDS011;71199;52.490;5.448;2024-01-30T00:50:29;16.23;;;10.77;;
81801;SDS011;71199;52.490;5.448;2024-01-30T00:52:54;21.33;;;12.33;;
81801;SDS011;71199;52.490;5.448;2024-01-30T00:55:20;20.55;;;11.68;;
81801;SDS011;71199;52.490;5.448;2024-01-30T00:57:45;21.90;;;11.82;;
81801;SDS011;71199;52.490;5.448;2024-01-30T01:00:12;19.70;;;11.05;;
81801;SDS011;71199;52.490;5.448;2024-01-30T01:02:38;22.73;;;11.55;;
81801;SDS011;71199;52.490;5.448;2024-01-30T01:05:06;19.38;;;10.95;;
81801;SDS011;71199;52.490;5.448;2024-01-30T01:07:32;18.60;;;10.88;;
81801;SDS011;71199;52.490;5.448;2024-01-30T01:09:57;18.00;;;11.97;;
81801;SDS011;71199;52.490;5.448;2024-01-30T01:12:22;24.50;;;11.57;;
81801;SDS011;71199;52.490;5.448;2024-01-30T01:14:48;20.10;;;10.80;;
81801;SDS011;71199;52.490;5.448;2024-01-30T01:17:13;16.77;;;10.83;;
81801;SDS011;71199;52.490;5.448;2024-01-30T01:19:38;20.33;;;11.00;;
81801;SDS011;71199;52.490;5.448;2024-01-30T01:22:04;20.43;;;11.33;;
81801;SDS011;71199;52.490;5.448;2024-01-30T01:24:32;17.97;;;11.47;;
81801;SDS011;71199;52.490;5.448;2024-01-30T01:26:58;18.23;;;10.02;;
81801;SDS011;71199;52.490;5.448;2024-01-30T01:29:24;17.88;;;10.38;;
81801;SDS011;71199;52.490;5.448;2024-01-30T01:31:54;18.88;;;10.38;;
81801;SDS011;71199;52.490;5.448;2024-01-30T01:34:22;18.30;;;10.52;;
81801;SDS011;71199;52.490;5.448;2024-01-30T01:36:49;18.98;;;11.10;;
81801;SDS011;71199;52.490;5.448;2024-01-30T01:39:15;17.92;;;10.63;;
81801;SDS011;71199;52.490;5.448;2024-01-30T01:41:40;19.38;;;10.88;;
81801;SDS011;71199;52.490;5.448;2024-01-30T01:44:06;17.77;;;10.80;;
81801;SDS011;71199;52.490;5.448;2024-01-30T01:46:33;19.17;;;10.93;;
81801;SDS011;71199;52.490;5.448;2024-01-30T01:48:59;19.23;;;10.20;;
81801;SDS011;71199;52.490;5.448;2024-01-30T01:51:27;22.17;;;10.68;;
81801;SDS011;71199;52.490;5.448;2024-01-30T01:53:55;17.80;;;10.18;;
81801;SDS011;71199;52.490;5.448;2024-01-30T01:56:23;18.13;;;10.90;;
81801;SDS011;71199;52.490;5.448;2024-01-30T01:58:49;18.13;;;10.90;;
81801;SDS011;71199;52.490;5.448;2024-01-30T02:01:16;17.88;;;11.15;;
81801;SDS011;71199;52.490;5.448;2024-01-30T02:03:45;17.75;;;10.18;;
81801;SDS011;71199;52.490;5.448;2024-01-30T02:06:12;23.23;;;11.60;;
81801;SDS011;71199;52.490;5.448;2024-01-30T02:08:38;19.42;;;10.38;;
81801;SDS011;71199;52.490;5.448;2024-01-30T02:11:04;18.67;;;10.65;;
81801;SDS011;71199;52.490;5.448;2024-01-30T02:13:30;17.42;;;10.18;;
81801;SDS011;71199;52.490;5.448;2024-01-30T02:15:55;22.53;;;10.57;;
81801;SDS011;71199;52.490;5.448;2024-01-30T02:18:20;18.77;;;11.03;;
81801;SDS011;71199;52.490;5.448;2024-01-30T02:20:46;18.25;;;10.02;;
81801;SDS011;71199;52.490;5.448;2024-01-30T02:23:12;17.50;;;10.82;;
81801;SDS011;71199;52.490;5.448;2024-01-30T02:25:40;16.83;;;10.07;;
81801;SDS011;71199;52.490;5.448;2024-01-30T02:28:12;17.30;;;10.32;;
81801;SDS011;71199;52.490;5.448;2024-01-30T02:30:47;18.92;;;10.90;;
81801;SDS011;71199;52.490;5.448;2024-01-30T02:33:13;18.60;;;10.48;;
81801;SDS011;71199;52.490;5.448;2024-01-30T02:35:38;19.27;;;10.23;;
81801;SDS011;71199;52.490;5.448;2024-01-30T02:38:04;18.45;;;10.98;;
81801;SDS011;71199;52.490;5.448;2024-01-30T02:40:30;20.15;;;10.65;;
81801;SDS011;71199;52.490;5.448;2024-01-30T02:42:56;21.33;;;10.60;;
81801;SDS011;71199;52.490;5.448;2024-01-30T02:45:21;18.48;;;10.95;;
81801;SDS011;71199;52.490;5.448;2024-01-30T02:47:47;16.30;;;10.87;;
81801;SDS011;71199;52.490;5.448;2024-01-30T02:50:12;18.20;;;10.70;;
81801;SDS011;71199;52.490;5.448;2024-01-30T02:52:38;15.95;;;10.10;;
81801;SDS011;71199;52.490;5.448;2024-01-30T02:55:03;17.20;;;10.43;;
81801;SDS011;71199;52.490;5.448;2024-01-30T02:57:29;19.27;;;11.32;;
81801;SDS011;71199;52.490;5.448;2024-01-30T02:59:54;16.05;;;10.05;;
81801;SDS011;71199;52.490;5.448;2024-01-30T03:02:20;17.63;;;10.20;;
81801;SDS011;71199;52.490;5.448;2024-01-30T03:04:45;20.95;;;11.32;;
81801;SDS011;71199;52.490;5.448;2024-01-30T03:07:11;19.35;;;10.23;;
81801;SDS011;71199;52.490;5.448;2024-01-30T03:09:36;21.20;;;10.63;;
81801;SDS011;71199;52.490;5.448;2024-01-30T03:12:02;18.67;;;9.68;;
81801;SDS011;71199;52.490;5.448;2024-01-30T03:14:30;15.48;;;9.10;;
81801;SDS011;71199;52.490;5.448;2024-01-30T03:16:56;19.17;;;10.77;;
81801;SDS011;71199;52.490;5.448;2024-01-30T03:19:21;15.57;;;9.97;;
81801;SDS011;71199;52.490;5.448;2024-01-30T03:21:46;17.60;;;10.03;;
81801;SDS011;71199;52.490;5.448;2024-01-30T03:24:12;19.67;;;10.87;;
81801;SDS011;71199;52.490;5.448;2024-01-30T03:26:37;18.67;;;10.95;;
81801;SDS011;71199;52.490;5.448;2024-01-30T03:29:02;17.48;;;9.40;;
81801;SDS011;71199;52.490;5.448;2024-01-30T03:31:28;16.27;;;9.93;;
81801;SDS011;71199;52.490;5.448;2024-01-30T03:33:53;20.57;;;10.33;;
81801;SDS011;71199;52.490;5.448;2024-01-30T03:36:19;16.33;;;9.93;;
81801;SDS011;71199;52.490;5.448;2024-01-30T03:38:45;17.92;;;9.73;;
81801;SDS011;71199;52.490;5.448;2024-01-30T03:41:10;17.38;;;9.68;;
81801;SDS011;71199;52.490;5.448;2024-01-30T03:43:36;20.27;;;9.70;;
81801;SDS011;71199;52.490;5.448;2024-01-30T03:46:01;19.73;;;9.60;;
81801;SDS011;71199;52.490;5.448;2024-01-30T03:48:28;16.00;;;9.25;;
81801;SDS011;71199;52.490;5.448;2024-01-30T03:50:54;17.80;;;9.30;;
81801;SDS011;71199;52.490;5.448;2024-01-30T03:53:19;17.58;;;10.40;;
81801;SDS011;71199;52.490;5.448;2024-01-30T03:55:45;19.15;;;10.77;;
81801;SDS011;71199;52.490;5.448;2024-01-30T03:58:10;17.23;;;9.48;;
81801;SDS011;71199;52.490;5.448;2024-01-30T04:00:35;13.97;;;9.20;;
81801;SDS011;71199;52.490;5.448;2024-01-30T04:03:01;19.80;;;9.85;;
81801;SDS011;71199;52.490;5.448;2024-01-30T04:05:26;16.23;;;10.00;;
81801;SDS011;71199;52.490;5.448;2024-01-30T04:07:52;16.42;;;9.60;;
81801;SDS011;71199;52.490;5.448;2024-01-30T04:10:17;17.80;;;10.17;;
81801;SDS011;71199;52.490;5.448;2024-01-30T04:12:43;16.88;;;9.20;;
81801;SDS011;71199;52.490;5.448;2024-01-30T04:15:08;19.25;;;10.15;;
81801;SDS011;71199;52.490;5.448;2024-01-30T04:17:33;18.77;;;10.02;;
81801;SDS011;71199;52.490;5.448;2024-01-30T04:19:59;18.58;;;8.98;;
81801;SDS011;71199;52.490;5.448;2024-01-30T04:22:24;15.90;;;9.23;;
81801;SDS011;71199;52.490;5.448;2024-01-30T04:24:50;16.83;;;10.10;;
81801;SDS011;71199;52.490;5.448;2024-01-30T04:27:15;18.80;;;9.80;;
81801;SDS011;71199;52.490;5.448;2024-01-30T04:29:40;16.03;;;9.50;;
81801;SDS011;71199;52.490;5.448;2024-01-30T04:32:06;16.10;;;9.93;;
81801;SDS011;71199;52.490;5.448;2024-01-30T04:34:31;14.95;;;9.90;;
81801;SDS011;71199;52.490;5.448;2024-01-30T04:36:56;16.93;;;9.93;;
81801;SDS011;71199;52.490;5.448;2024-01-30T04:39:22;17.77;;;9.30;;
81801;SDS011;71199;52.490;5.448;2024-01-30T04:41:47;17.97;;;9.77;;
81801;SDS011;71199;52.490;5.448;2024-01-30T04:44:13;22.08;;;11.25;;
81801;SDS011;71199;52.490;5.448;2024-01-30T04:46:38;17.88;;;10.75;;
81801;SDS011;71199;52.490;5.448;2024-01-30T04:49:04;18.90;;;10.43;;
81801;SDS011;71199;52.490;5.448;2024-01-30T04:51:29;17.33;;;10.40;;
81801;SDS011;71199;52.490;5.448;2024-01-30T04:53:55;17.70;;;9.53;;
81801;SDS011;71199;52.490;5.448;2024-01-30T04:56:20;14.50;;;9.17;;
81801;SDS011;71199;52.490;5.448;2024-01-30T04:58:45;20.05;;;10.45;;
81801;SDS011;71199;52.490;5.448;2024-01-30T05:01:14;20.23;;;10.10;;
81801;SDS011;71199;52.490;5.448;2024-01-30T05:03:41;18.38;;;10.30;;
81801;SDS011;71199;52.490;5.448;2024-01-30T05:06:06;18.17;;;10.65;;
81801;SDS011;71199;52.490;5.448;2024-01-30T05:08:31;22.30;;;11.00;;
81801;SDS011;71199;52.490;5.448;2024-01-30T05:10:59;15.85;;;10.07;;
81801;SDS011;71199;52.490;5.448;2024-01-30T05:13:25;16.02;;;9.73;;
81801;SDS011;71199;52.490;5.448;2024-01-30T05:15:50;19.83;;;10.57;;
81801;SDS011;71199;52.490;5.448;2024-01-30T05:18:16;17.27;;;9.80;;
81801;SDS011;71199;52.490;5.448;2024-01-30T05:20:41;18.53;;;9.53;;
81801;SDS011;71199;52.490;5.448;2024-01-30T05:23:07;15.85;;;10.23;;
81801;SDS011;71199;52.490;5.448;2024-01-30T05:25:32;17.47;;;9.80;;
81801;SDS011;71199;52.490;5.448;2024-01-30T05:27:57;16.52;;;9.65;;
81801;SDS011;71199;52.490;5.448;2024-01-30T05:30:23;17.83;;;10.07;;
81801;SDS011;71199;52.490;5.448;2024-01-30T05:32:48;17.83;;;9.77;;
81801;SDS011;71199;52.490;5.448;2024-01-30T05:35:14;17.45;;;10.25;;
81801;SDS011;71199;52.490;5.448;2024-01-30T05:37:40;15.02;;;9.38;;
81801;SDS011;71199;52.490;5.448;2024-01-30T05:40:05;16.47;;;8.23;;
81801;SDS011;71199;52.490;5.448;2024-01-30T05:42:31;17.63;;;8.57;;
81801;SDS011;71199;52.490;5.448;2024-01-30T05:44:56;19.63;;;9.40;;
81801;SDS011;71199;52.490;5.448;2024-01-30T05:47:22;17.05;;;9.02;;
81801;SDS011;71199;52.490;5.448;2024-01-30T05:49:47;15.77;;;8.93;;
81801;SDS011;71199;52.490;5.448;2024-01-30T05:52:13;16.30;;;9.23;;
81801;SDS011;71199;52.490;5.448;2024-01-30T05:54:40;15.45;;;8.98;;
81801;SDS011;71199;52.490;5.448;2024-01-30T05:57:05;17.30;;;9.30;;
81801;SDS011;71199;52.490;5.448;2024-01-30T05:59:31;18.20;;;9.27;;
81801;SDS011;71199;52.490;5.448;2024-01-30T06:01:57;16.58;;;9.13;;
81801;SDS011;71199;52.490;5.448;2024-01-30T06:04:22;17.17;;;10.03;;
81801;SDS011;71199;52.490;5.448;2024-01-30T06:06:48;17.42;;;8.90;;
81801;SDS011;71199;52.490;5.448;2024-01-30T06:09:13;16.80;;;8.70;;
81801;SDS011;71199;52.490;5.448;2024-01-30T06:11:39;17.33;;;8.63;;
81801;SDS011;71199;52.490;5.448;2024-01-30T06:14:04;17.75;;;9.70;;
81801;SDS011;71199;52.490;5.448;2024-01-30T06:16:30;15.35;;;8.98;;
81801;SDS011;71199;52.490;5.448;2024-01-30T06:18:56;18.52;;;9.32;;
81801;SDS011;71199;52.490;5.448;2024-01-30T06:21:21;14.38;;;8.40;;
81801;SDS011;71199;52.490;5.448;2024-01-30T06:23:47;15.48;;;8.38;;
81801;SDS011;71199;52.490;5.448;2024-01-30T06:26:12;19.40;;;8.80;;
81801;SDS011;71199;52.490;5.448;2024-01-30T06:28:37;14.75;;;9.13;;
81801;SDS011;71199;52.490;5.448;2024-01-30T06:31:03;17.60;;;8.63;;
81801;SDS011;71199;52.490;5.448;2024-01-30T06:33:28;18.05;;;8.70;;
81801;SDS011;71199;52.490;5.448;2024-01-30T06:35:54;18.33;;;9.43;;
81801;SDS011;71199;52.490;5.448;2024-01-30T06:38:19;14.00;;;9.20;;
81801;SDS011;71199;52.490;5.448;2024-01-30T06:40:44;17.03;;;9.30;;
81801;SDS011;71199;52.490;5.448;2024-01-30T06:43:10;15.77;;;8.93;;
81801;SDS011;71199;52.490;5.448;2024-01-30T06:45:36;17.60;;;9.20;;
81801;SDS011;71199;52.490;5.448;2024-01-30T06:48:02;14.40;;;8.68;;
81801;SDS011;71199;52.490;5.448;2024-01-30T06:50:28;15.32;;;8.40;;
81801;SDS011;71199;52.490;5.448;2024-01-30T06:52:53;14.40;;;8.43;;
81801;SDS011;71199;52.490;5.448;2024-01-30T06:55:18;18.63;;;8.97;;
81801;SDS011;71199;52.490;5.448;2024-01-30T06:57:44;13.57;;;8.03;;
81801;SDS011;71199;52.490;5.448;2024-01-30T07:00:09;19.60;;;9.45;;
81801;SDS011;71199;52.490;5.448;2024-01-30T07:02:35;16.70;;;8.85;;
81801;SDS011;71199;52.490;5.448;2024-01-30T07:05:01;17.25;;;8.25;;
81801;SDS011;71199;52.490;5.448;2024-01-30T07:07:27;14.52;;;8.43;;
81801;SDS011;71199;52.490;5.448;2024-01-30T07:09:53;17.00;;;8.65;;
81801;SDS011;71199;52.490;5.448;2024-01-30T07:12:21;13.73;;;8.15;;
81801;SDS011;71199;52.490;5.448;2024-01-30T07:14:51;17.70;;;9.15;;
81801;SDS011;71199;52.490;5.448;2024-01-30T07:17:16;15.65;;;8.18;;
81801;SDS011;71199;52.490;5.448;2024-01-30T07:19:42;15.70;;;8.57;;
81801;SDS011;71199;52.490;5.448;2024-01-30T07:22:07;15.38;;;8.70;;
81801;SDS011;71199;52.490;5.448;2024-01-30T07:24:33;17.90;;;7.78;;
81801;SDS011;71199;52.490;5.448;2024-01-30T07:26:59;16.27;;;8.40;;
81801;SDS011;71199;52.490;5.448;2024-01-30T07:29:24;17.02;;;8.90;;
81801;SDS011;71199;52.490;5.448;2024-01-30T07:31:50;17.67;;;8.20;;
81801;SDS011;71199;52.490;5.448;2024-01-30T07:34:15;13.98;;;8.98;;
81801;SDS011;71199;52.490;5.448;2024-01-30T07:36:41;13.10;;;7.32;;
81801;SDS011;71199;52.490;5.448;2024-01-30T07:39:06;13.15;;;8.25;;
81801;SDS011;71199;52.490;5.448;2024-01-30T07:41:32;16.20;;;8.70;;
81801;SDS011;71199;52.490;5.448;2024-01-30T07:43:57;15.73;;;8.18;;
81801;SDS011;71199;52.490;5.448;2024-01-30T07:46:22;17.03;;;8.03;;
81801;SDS011;71199;52.490;5.448;2024-01-30T07:48:48;14.93;;;8.17;;
81801;SDS011;71199;52.490;5.448;2024-01-30T07:51:13;16.67;;;8.33;;
81801;SDS011;71199;52.490;5.448;2024-01-30T07:53:39;20.05;;;8.65;;
81801;SDS011;71199;52.490;5.448;2024-01-30T07:56:06;16.98;;;7.80;;
81801;SDS011;71199;52.490;5.448;2024-01-30T07:58:32;12.90;;;7.47;;
81801;SDS011;71199;52.490;5.448;2024-01-30T08:00:57;15.73;;;8.00;;
81801;SDS011;71199;52.490;5.448;2024-01-30T08:03:23;16.73;;;8.00;;
81801;SDS011;71199;52.490;5.448;2024-01-30T08:05:49;15.57;;;8.10;;
81801;SDS011;71199;52.490;5.448;2024-01-30T08:08:14;15.57;;;7.57;;
81801;SDS011;71199;52.490;5.448;2024-01-30T08:10:40;14.13;;;7.23;;
81801;SDS011;71199;52.490;5.448;2024-01-30T08:13:05;15.45;;;7.60;;
81801;SDS011;71199;52.490;5.448;2024-01-30T08:15:31;13.38;;;7.40;;
81801;SDS011;71199;52.490;5.448;2024-01-30T08:17:56;16.60;;;7.50;;
81801;SDS011;71199;52.490;5.448;2024-01-30T08:20:24;12.15;;;7.07;;
81801;SDS011;71199;52.490;5.448;2024-01-30T08:22:49;13.93;;;7.07;;
81801;SDS011;71199;52.490;5.448;2024-01-30T08:25:15;14.02;;;7.60;;
81801;SDS011;71199;52.490;5.448;2024-01-30T08:27:40;16.77;;;7.00;;
81801;SDS011;71199;52.490;5.448;2024-01-30T08:30:06;17.83;;;7.18;;
81801;SDS011;71199;52.490;5.448;2024-01-30T08:32:32;15.68;;;7.25;;
81801;SDS011;71199;52.490;5.448;2024-01-30T08:34:57;11.52;;;6.88;;
81801;SDS011;71199;52.490;5.448;2024-01-30T08:37:23;11.38;;;7.38;;
81801;SDS011;71199;52.490;5.448;2024-01-30T08:39:48;15.50;;;7.72;;
81801;SDS011;71199;52.490;5.448;2024-01-30T08:42:14;13.83;;;7.20;;
81801;SDS011;71199;52.490;5.448;2024-01-30T08:44:39;12.75;;;6.70;;
81801;SDS011;71199;52.490;5.448;2024-01-30T08:47:04;13.47;;;6.87;;
81801;SDS011;71199;52.490;5.448;2024-01-30T08:49:30;12.32;;;7.03;;
81801;SDS011;71199;52.490;5.448;2024-01-30T08:51:56;16.50;;;7.05;;
81801;SDS011;71199;52.490;5.448;2024-01-30T08:54:22;15.25;;;6.78;;
81801;SDS011;71199;52.490;5.448;2024-01-30T08:56:49;18.40;;;7.88;;
81801;SDS011;71199;52.490;5.448;2024-01-30T08:59:14;15.05;;;7.60;;
81801;SDS011;71199;52.490;5.448;2024-01-30T09:01:40;15.90;;;7.78;;
81801;SDS011;71199;52.490;5.448;2024-01-30T09:04:05;17.13;;;6.85;;
81801;SDS011;71199;52.490;5.448;2024-01-30T09:06:30;14.57;;;8.17;;
81801;SDS011;71199;52.490;5.448;2024-01-30T09:08:56;13.70;;;7.22;;
81801;SDS011;71199;52.490;5.448;2024-01-30T09:11:23;13.18;;;7.53;;
81801;SDS011;71199;52.490;5.448;2024-01-30T09:13:48;16.77;;;7.57;;
81801;SDS011;71199;52.490;5.448;2024-01-30T09:16:14;13.32;;;7.30;;
81801;SDS011;71199;52.490;5.448;2024-01-30T09:18:41;16.63;;;7.68;;
81801;SDS011;71199;52.490;5.448;2024-01-30T09:21:06;20.40;;;8.45;;
81801;SDS011;71199;52.490;5.448;2024-01-30T09:23:31;19.30;;;8.07;;
81801;SDS011;71199;52.490;5.448;2024-01-30T09:25:57;16.50;;;7.28;;
81801;SDS011;71199;52.490;5.448;2024-01-30T09:28:22;17.08;;;7.93;;
81801;SDS011;71199;52.490;5.448;2024-01-30T09:30:48;22.42;;;8.18;;
81801;SDS011;71199;52.490;5.448;2024-01-30T09:33:13;20.13;;;8.60;;
81801;SDS011;71199;52.490;5.448;2024-01-30T09:35:39;16.35;;;8.10;;
81801;SDS011;71199;52.490;5.448;2024-01-30T09:38:04;18.57;;;7.93;;
81801;SDS011;71199;52.490;5.448;2024-01-30T09:40:29;19.55;;;9.02;;
81801;SDS011;71199;52.490;5.448;2024-01-30T09:42:55;21.52;;;8.02;;
81801;SDS011;71199;52.490;5.448;2024-01-30T09:45:24;18.15;;;7.93;;
81801;SDS011;71199;52.490;5.448;2024-01-30T09:47:50;12.93;;;7.35;;
81801;SDS011;71199;52.490;5.448;2024-01-30T09:50:16;16.65;;;7.55;;
81801;SDS011;71199;52.490;5.448;2024-01-30T09:52:45;17.00;;;8.10;;
81801;SDS011;71199;52.490;5.448;2024-01-30T09:55:14;17.10;;;7.60;;
81801;SDS011;71199;52.490;5.448;2024-01-30T09:57:41;19.13;;;8.45;;
81801;SDS011;71199;52.490;5.448;2024-01-30T10:00:07;15.38;;;8.23;;
81801;SDS011;71199;52.490;5.448;2024-01-30T10:02:34;17.10;;;8.05;;
81801;SDS011;71199;52.490;5.448;2024-01-30T10:05:02;17.75;;;8.35;;
81801;SDS011;71199;52.490;5.448;2024-01-30T10:07:28;15.60;;;8.35;;
81801;SDS011;71199;52.490;5.448;2024-01-30T10:09:54;16.25;;;8.48;;
81801;SDS011;71199;52.490;5.448;2024-01-30T10:12:23;14.13;;;7.75;;
81801;SDS011;71199;52.490;5.448;2024-01-30T10:14:48;17.80;;;8.80;;
81801;SDS011;71199;52.490;5.448;2024-01-30T10:17:13;20.50;;;8.40;;
81801;SDS011;71199;52.490;5.448;2024-01-30T10:19:39;17.27;;;8.93;;
81801;SDS011;71199;52.490;5.448;2024-01-30T10:22:05;18.13;;;8.32;;
81801;SDS011;71199;52.490;5.448;2024-01-30T10:24:31;14.73;;;7.60;;
81801;SDS011;71199;52.490;5.448;2024-01-30T10:26:58;18.90;;;8.73;;
81801;SDS011;71199;52.490;5.448;2024-01-30T10:29:23;17.73;;;7.63;;
81801;SDS011;71199;52.490;5.448;2024-01-30T10:31:59;15.43;;;8.80;;
81801;SDS011;71199;52.490;5.448;2024-01-30T10:36:58;13.40;;;7.67;;
81801;SDS011;71199;52.490;5.448;2024-01-30T10:39:32;15.45;;;7.30;;
81801;SDS011;71199;52.490;5.448;2024-01-30T10:42:04;14.18;;;7.25;;
81801;SDS011;71199;52.490;5.448;2024-01-30T10:44:30;13.98;;;7.25;;
81801;SDS011;71199;52.490;5.448;2024-01-30T10:47:03;13.55;;;6.82;;
81801;SDS011;71199;52.490;5.448;2024-01-30T10:49:33;18.38;;;7.18;;
81801;SDS011;71199;52.490;5.448;2024-01-30T10:51:59;14.98;;;7.35;;
81801;SDS011;71199;52.490;5.448;2024-01-30T10:54:25;13.20;;;7.13;;
81801;SDS011;71199;52.490;5.448;2024-01-30T10:56:51;13.85;;;6.35;;
81801;SDS011;71199;52.490;5.448;2024-01-30T10:59:18;12.98;;;6.00;;
81801;SDS011;71199;52.490;5.448;2024-01-30T11:01:44;8.90;;;4.38;;
81801;SDS011;71199;52.490;5.448;2024-01-30T11:04:10;7.72;;;4.30;;
81801;SDS011;71199;52.490;5.448;2024-01-30T11:06:40;9.02;;;3.67;;
81801;SDS011;71199;52.490;5.448;2024-01-30T11:09:10;9.10;;;4.15;;
81801;SDS011;71199;52.490;5.448;2024-01-30T11:11:56;7.93;;;3.92;;
81801;SDS011;71199;52.490;5.448;2024-01-30T11:14:26;8.25;;;3.40;;
81801;SDS011;71199;52.490;5.448;2024-01-30T11:16:56;10.00;;;3.17;;
81801;SDS011;71199;52.490;5.448;2024-01-30T11:19:23;7.82;;;3.45;;
81801;SDS011;71199;52.490;5.448;2024-01-30T11:24:19;9.45;;;3.00;;
81801;SDS011;71199;52.490;5.448;2024-01-30T11:26:48;3.97;;;1.90;;
81801;SDS011;71199;52.490;5.448;2024-01-30T11:29:15;5.85;;;1.85;;
81801;SDS011;71199;52.490;5.448;2024-01-30T11:31:51;5.72;;;1.98;;
81801;SDS011;71199;52.490;5.448;2024-01-30T11:34:18;5.70;;;1.80;;
81801;SDS011;71199;52.490;5.448;2024-01-30T11:36:44;5.13;;;1.83;;
81801;SDS011;71199;52.490;5.448;2024-01-30T11:39:14;2.65;;;1.60;;
81801;SDS011;71199;52.490;5.448;2024-01-30T11:41:42;3.55;;;1.60;;
81801;SDS011;71199;52.490;5.448;2024-01-30T11:44:10;6.00;;;1.52;;
81801;SDS011;71199;52.490;5.448;2024-01-30T11:46:36;3.17;;;1.80;;
81801;SDS011;71199;52.490;5.448;2024-01-30T11:49:01;3.65;;;1.80;;
81801;SDS011;71199;52.490;5.448;2024-01-30T11:51:27;3.60;;;1.45;;
81801;SDS011;71199;52.490;5.448;2024-01-30T11:53:53;4.30;;;1.60;;
81801;SDS011;71199;52.490;5.448;2024-01-30T11:56:18;2.20;;;1.40;;
81801;SDS011;71199;52.490;5.448;2024-01-30T11:58:44;4.93;;;1.10;;
81801;SDS011;71199;52.490;5.448;2024-01-30T12:01:10;5.65;;;1.75;;
81801;SDS011;71199;52.490;5.448;2024-01-30T12:03:36;2.70;;;1.38;;
81801;SDS011;71199;52.490;5.448;2024-01-30T12:06:02;5.13;;;1.40;;
81801;SDS011;71199;52.490;5.448;2024-01-30T12:08:28;3.80;;;1.70;;
81801;SDS011;71199;52.490;5.448;2024-01-30T12:10:57;7.70;;;1.80;;
81801;SDS011;71199;52.490;5.448;2024-01-30T12:13:23;3.67;;;1.33;;
81801;SDS011;71199;52.490;5.448;2024-01-30T12:15:50;7.22;;;1.30;;
81801;SDS011;71199;52.490;5.448;2024-01-30T12:18:18;6.30;;;1.60;;
81801;SDS011;71199;52.490;5.448;2024-01-30T12:20:43;4.35;;;2.08;;
81801;SDS011;71199;52.490;5.448;2024-01-30T12:23:09;3.83;;;1.92;;
81801;SDS011;71199;52.490;5.448;2024-01-30T12:25:37;4.38;;;1.50;;
81801;SDS011;71199;52.490;5.448;2024-01-30T12:28:03;4.13;;;1.60;;
81801;SDS011;71199;52.490;5.448;2024-01-30T12:30:29;10.48;;;1.83;;
81801;SDS011;71199;52.490;5.448;2024-01-30T12:32:54;4.10;;;1.73;;
81801;SDS011;71199;52.490;5.448;2024-01-30T12:35:20;8.30;;;1.90;;
81801;SDS011;71199;52.490;5.448;2024-01-30T12:37:47;10.32;;;2.05;;
81801;SDS011;71199;52.490;5.448;2024-01-30T12:42:43;3.33;;;1.75;;
81801;SDS011;71199;52.490;5.448;2024-01-30T12:45:14;6.88;;;1.70;;
81801;SDS011;71199;52.490;5.448;2024-01-30T12:47:47;5.70;;;1.65;;
81801;SDS011;71199;52.490;5.448;2024-01-30T12:50:13;4.15;;;1.80;;
81801;SDS011;71199;52.490;5.448;2024-01-30T12:52:40;4.63;;;1.50;;
81801;SDS011;71199;52.490;5.448;2024-01-30T12:55:06;5.75;;;1.98;;
81801;SDS011;71199;52.490;5.448;2024-01-30T12:57:32;9.30;;;2.10;;
81801;SDS011;71199;52.490;5.448;2024-01-30T12:59:57;4.85;;;2.00;;
81801;SDS011;71199;52.490;5.448;2024-01-30T13:02:23;5.18;;;1.85;;
81801;SDS011;71199;52.490;5.448;2024-01-30T13:04:49;6.03;;;2.03;;
81801;SDS011;71199;52.490;5.448;2024-01-30T13:07:14;6.18;;;1.88;;
81801;SDS011;71199;52.490;5.448;2024-01-30T13:09:39;5.40;;;1.93;;
81801;SDS011;71199;52.490;5.448;2024-01-30T13:12:05;4.32;;;2.10;;
81801;SDS011;71199;52.490;5.448;2024-01-30T13:14:30;4.47;;;2.10;;
81801;SDS011;71199;52.490;5.448;2024-01-30T13:16:56;8.67;;;2.37;;
81801;SDS011;71199;52.490;5.448;2024-01-30T13:19:21;9.43;;;2.40;;
81801;SDS011;71199;52.490;5.448;2024-01-30T13:21:46;8.53;;;2.27;;
81801;SDS011;71199;52.490;5.448;2024-01-30T13:24:12;10.05;;;2.40;;
81801;SDS011;71199;52.490;5.448;2024-01-30T13:26:38;7.65;;;2.45;;
81801;SDS011;71199;52.490;5.448;2024-01-30T13:29:04;6.93;;;2.20;;
81801;SDS011;71199;52.490;5.448;2024-01-30T13:31:29;8.70;;;2.63;;
81801;SDS011;71199;52.490;5.448;2024-01-30T13:33:55;7.55;;;2.97;;
81801;SDS011;71199;52.490;5.448;2024-01-30T13:36:20;9.80;;;3.30;;
81801;SDS011;71199;52.490;5.448;2024-01-30T13:38:46;6.85;;;2.90;;
81801;SDS011;71199;52.490;5.448;2024-01-30T13:41:12;9.40;;;2.45;;
81801;SDS011;71199;52.490;5.448;2024-01-30T13:43:37;11.57;;;3.43;;
81801;SDS011;71199;52.490;5.448;2024-01-30T13:46:03;8.93;;;2.92;;
81801;SDS011;71199;52.490;5.448;2024-01-30T13:48:28;5.47;;;2.80;;
81801;SDS011;71199;52.490;5.448;2024-01-30T13:50:54;5.13;;;2.88;;
81801;SDS011;71199;52.490;5.448;2024-01-30T13:53:20;5.47;;;3.13;;
81801;SDS011;71199;52.490;5.448;2024-01-30T13:55:46;8.98;;;3.38;;
81801;SDS011;71199;52.490;5.448;2024-01-30T13:58:12;7.80;;;3.38;;
81801;SDS011;71199;52.490;5.448;2024-01-30T14:00:37;5.32;;;2.90;;
81801;SDS011;71199;52.490;5.448;2024-01-30T14:03:03;9.43;;;4.05;;
81801;SDS011;71199;52.490;5.448;2024-01-30T14:05:29;6.95;;;2.97;;
81801;SDS011;71199;52.490;5.448;2024-01-30T14:07:54;6.50;;;3.42;;
81801;SDS011;71199;52.490;5.448;2024-01-30T14:10:20;6.78;;;3.47;;
81801;SDS011;71199;52.490;5.448;2024-01-30T14:12:46;7.80;;;3.40;;
81801;SDS011;71199;52.490;5.448;2024-01-30T14:15:13;7.68;;;3.35;;
81801;SDS011;71199;52.490;5.448;2024-01-30T14:17:40;5.25;;;3.30;;
81801;SDS011;71199;52.490;5.448;2024-01-30T14:20:05;4.20;;;2.92;;
81801;SDS011;71199;52.490;5.448;2024-01-30T14:22:32;5.15;;;3.35;;
81801;SDS011;71199;52.490;5.448;2024-01-30T14:24:59;6.22;;;3.22;;
81801;SDS011;71199;52.490;5.448;2024-01-30T14:27:24;9.40;;;3.35;;
81801;SDS011;71199;52.490;5.448;2024-01-30T14:29:49;7.45;;;3.28;;
81801;SDS011;71199;52.490;5.448;2024-01-30T14:32:15;7.13;;;3.47;;
81801;SDS011;71199;52.490;5.448;2024-01-30T14:34:40;7.33;;;3.67;;